sensor_id;sensor_type;location;lat;lon;timestamp;P1;durP1;ratioP1;P2;durP2;ratioP2
13267;SDS011;6702;47.068;15.458;2023-04-28T00:00:57;9.50;;;4.30;;
13267;SDS011;6702;47.068;15.458;2023-04-28T00:04:06;4.80;;;4.40;;
13267;SDS011;6702;47.068;15.458;2023-04-28T00:07:13;6.30;;;4.23;;
13267;SDS011;6702;47.068;15.458;2023-04-28T00:10:20;7.40;;;4.73;;
13267;SDS011;6702;47.068;15.458;2023-04-28T00:13:25;6.77;;;4.30;;
13267;SDS011;6702;47.068;15.458;2023-04-28T00:16:37;4.57;;;3.87;;
13267;SDS011;6702;47.068;15.458;2023-04-28T00:19:44;5.53;;;4.30;;
13267;SDS011;6702;47.068;15.458;2023-04-28T00:22:51;5.07;;;4.50;;
13267;SDS011;6702;47.068;15.458;2023-04-28T00:25:57;6.90;;;4.73;;
13267;SDS011;6702;47.068;15.458;2023-04-28T00:29:03;6.33;;;4.67;;
13267;SDS011;6702;47.068;15.458;2023-04-28T00:32:10;9.97;;;5.80;;
13267;SDS011;6702;47.068;15.458;2023-04-28T00:35:18;4.70;;;3.90;;
13267;SDS011;6702;47.068;15.458;2023-04-28T00:38:25;5.53;;;4.23;;
13267;SDS011;6702;47.068;15.458;2023-04-28T00:41:33;5.63;;;4.80;;
13267;SDS011;6702;47.068;15.458;2023-04-28T00:44:38;5.10;;;4.60;;
13267;SDS011;6702;47.068;15.458;2023-04-28T00:47:50;5.23;;;4.23;;
13267;SDS011;6702;47.068;15.458;2023-04-28T00:50:54;5.20;;;4.70;;
13267;SDS011;6702;47.068;15.458;2023-04-28T00:54:02;5.20;;;4.00;;
13267;SDS011;6702;47.068;15.458;2023-04-28T00:57:10;4.73;;;4.33;;
13267;SDS011;6702;47.068;15.458;2023-04-28T01:00:17;4.90;;;4.40;;
13267;SDS011;6702;47.068;15.458;2023-04-28T01:03:22;5.20;;;4.77;;
13267;SDS011;6702;47.068;15.458;2023-04-28T01:06:27;5.40;;;4.73;;
13267;SDS011;6702;47.068;15.458;2023-04-28T01:09:34;4.37;;;4.00;;
13267;SDS011;6702;47.068;15.458;2023-04-28T01:12:47;7.93;;;3.97;;
13267;SDS011;6702;47.068;15.458;2023-04-28T01:15:59;5.93;;;4.53;;
13267;SDS011;6702;47.068;15.458;2023-04-28T01:19:07;5.23;;;4.20;;
13267;SDS011;6702;47.068;15.458;2023-04-28T01:22:15;4.33;;;3.93;;
13267;SDS011;6702;47.068;15.458;2023-04-28T01:25:21;5.33;;;5.00;;
13267;SDS011;6702;47.068;15.458;2023-04-28T01:28:34;6.20;;;4.50;;
13267;SDS011;6702;47.068;15.458;2023-04-28T01:31:40;10.37;;;5.20;;
13267;SDS011;6702;47.068;15.458;2023-04-28T01:34:45;5.97;;;5.50;;
13267;SDS011;6702;47.068;15.458;2023-04-28T01:37:50;5.60;;;5.00;;
13267;SDS011;6702;47.068;15.458;2023-04-28T01:41:05;5.50;;;4.87;;
13267;SDS011;6702;47.068;15.458;2023-04-28T01:44:09;6.23;;;4.40;;
13267;SDS011;6702;47.068;15.458;2023-04-28T01:47:25;6.37;;;4.67;;
13267;SDS011;6702;47.068;15.458;2023-04-28T01:50:30;5.93;;;5.00;;
13267;SDS011;6702;47.068;15.458;2023-04-28T01:53:37;5.93;;;4.90;;
13267;SDS011;6702;47.068;15.458;2023-04-28T01:56:49;5.73;;;5.33;;
13267;SDS011;6702;47.068;15.458;2023-04-28T01:59:54;5.83;;;5.33;;
13267;SDS011;6702;47.068;15.458;2023-04-28T02:02:58;5.97;;;5.40;;
13267;SDS011;6702;47.068;15.458;2023-04-28T02:06:05;5.67;;;5.10;;
13267;SDS011;6702;47.068;15.458;2023-04-28T02:09:10;6.43;;;4.90;;
13267;SDS011;6702;47.068;15.458;2023-04-28T02:12:20;4.63;;;4.23;;
13267;SDS011;6702;47.068;15.458;2023-04-28T02:15:24;5.20;;;4.70;;
13267;SDS011;6702;47.068;15.458;2023-04-28T02:18:28;6.53;;;5.33;;
13267;SDS011;6702;47.068;15.458;2023-04-28T02:21:33;5.30;;;4.53;;
13267;SDS011;6702;47.068;15.458;2023-04-28T02:24:37;5.63;;;5.17;;
13267;SDS011;6702;47.068;15.458;2023-04-28T02:27:45;5.70;;;4.10;;
13267;SDS011;6702;47.068;15.458;2023-04-28T02:30:50;5.30;;;4.90;;
13267;SDS011;6702;47.068;15.458;2023-04-28T02:33:54;5.70;;;5.07;;
13267;SDS011;6702;47.068;15.458;2023-04-28T02:36:59;7.67;;;5.20;;
13267;SDS011;6702;47.068;15.458;2023-04-28T02:40:05;5.70;;;5.13;;
13267;SDS011;6702;47.068;15.458;2023-04-28T02:43:20;6.53;;;4.70;;
13267;SDS011;6702;47.068;15.458;2023-04-28T02:46:25;5.50;;;5.00;;
13267;SDS011;6702;47.068;15.458;2023-04-28T02:49:30;7.20;;;5.70;;
13267;SDS011;6702;47.068;15.458;2023-04-28T02:52:38;5.17;;;4.77;;
13267;SDS011;6702;47.068;15.458;2023-04-28T02:55:45;9.63;;;6.10;;
13267;SDS011;6702;47.068;15.458;2023-04-28T02:58:55;5.27;;;4.60;;
13267;SDS011;6702;47.068;15.458;2023-04-28T03:02:05;5.43;;;4.93;;
13267;SDS011;6702;47.068;15.458;2023-04-28T03:05:14;6.53;;;5.57;;
13267;SDS011;6702;47.068;15.458;2023-04-28T03:08:18;6.17;;;4.83;;
13267;SDS011;6702;47.068;15.458;2023-04-28T03:11:30;6.30;;;5.30;;
13267;SDS011;6702;47.068;15.458;2023-04-28T03:14:40;6.97;;;5.87;;
13267;SDS011;6702;47.068;15.458;2023-04-28T03:17:45;8.30;;;5.63;;
13267;SDS011;6702;47.068;15.458;2023-04-28T03:20:50;5.80;;;5.20;;
13267;SDS011;6702;47.068;15.458;2023-04-28T03:23:58;5.73;;;5.23;;
13267;SDS011;6702;47.068;15.458;2023-04-28T03:27:07;8.90;;;5.43;;
13267;SDS011;6702;47.068;15.458;2023-04-28T03:30:18;5.60;;;5.13;;
13267;SDS011;6702;47.068;15.458;2023-04-28T03:33:30;5.40;;;4.90;;
13267;SDS011;6702;47.068;15.458;2023-04-28T03:36:44;6.30;;;5.70;;
13267;SDS011;6702;47.068;15.458;2023-04-28T03:39:51;6.03;;;5.50;;
13267;SDS011;6702;47.068;15.458;2023-04-28T03:42:55;8.30;;;6.57;;
13267;SDS011;6702;47.068;15.458;2023-04-28T03:46:12;11.23;;;5.83;;
13267;SDS011;6702;47.068;15.458;2023-04-28T03:49:17;7.23;;;5.70;;
13267;SDS011;6702;47.068;15.458;2023-04-28T03:52:20;6.93;;;6.30;;
13267;SDS011;6702;47.068;15.458;2023-04-28T03:55:24;7.60;;;6.77;;
13267;SDS011;6702;47.068;15.458;2023-04-28T03:58:35;9.90;;;6.37;;
13267;SDS011;6702;47.068;15.458;2023-04-28T04:01:42;10.20;;;6.20;;
13267;SDS011;6702;47.068;15.458;2023-04-28T04:04:47;9.53;;;7.70;;
13267;SDS011;6702;47.068;15.458;2023-04-28T04:07:51;8.03;;;6.70;;
13267;SDS011;6702;47.068;15.458;2023-04-28T04:10:56;7.73;;;5.93;;
13267;SDS011;6702;47.068;15.458;2023-04-28T04:14:01;6.20;;;5.67;;
13267;SDS011;6702;47.068;15.458;2023-04-28T04:17:07;8.53;;;6.93;;
13267;SDS011;6702;47.068;15.458;2023-04-28T04:20:12;7.63;;;6.07;;
13267;SDS011;6702;47.068;15.458;2023-04-28T04:23:16;6.27;;;5.77;;
13267;SDS011;6702;47.068;15.458;2023-04-28T04:26:21;6.10;;;5.50;;
13267;SDS011;6702;47.068;15.458;2023-04-28T04:29:26;10.50;;;6.30;;
13267;SDS011;6702;47.068;15.458;2023-04-28T04:32:32;8.80;;;6.13;;
13267;SDS011;6702;47.068;15.458;2023-04-28T04:35:38;6.60;;;5.50;;
13267;SDS011;6702;47.068;15.458;2023-04-28T04:38:47;7.73;;;6.20;;
13267;SDS011;6702;47.068;15.458;2023-04-28T04:41:55;10.47;;;6.37;;
13267;SDS011;6702;47.068;15.458;2023-04-28T04:45:01;8.10;;;5.97;;
13267;SDS011;6702;47.068;15.458;2023-04-28T04:48:11;6.50;;;5.83;;
13267;SDS011;6702;47.068;15.458;2023-04-28T04:51:16;5.93;;;5.43;;
13267;SDS011;6702;47.068;15.458;2023-04-28T04:54:28;7.00;;;5.57;;
13267;SDS011;6702;47.068;15.458;2023-04-28T04:57:33;7.60;;;6.80;;
13267;SDS011;6702;47.068;15.458;2023-04-28T05:00:45;7.90;;;6.40;;
13267;SDS011;6702;47.068;15.458;2023-04-28T05:03:52;6.60;;;6.00;;
13267;SDS011;6702;47.068;15.458;2023-04-28T05:06:57;5.70;;;5.20;;
13267;SDS011;6702;47.068;15.458;2023-04-28T05:10:09;7.07;;;5.70;;
13267;SDS011;6702;47.068;15.458;2023-04-28T05:13:13;7.67;;;5.53;;
13267;SDS011;6702;47.068;15.458;2023-04-28T05:16:17;11.20;;;5.30;;
13267;SDS011;6702;47.068;15.458;2023-04-28T05:19:31;9.00;;;6.23;;
13267;SDS011;6702;47.068;15.458;2023-04-28T05:22:36;7.97;;;5.13;;
13267;SDS011;6702;47.068;15.458;2023-04-28T05:25:45;9.30;;;6.77;;
13267;SDS011;6702;47.068;15.458;2023-04-28T05:28:49;7.27;;;6.07;;
13267;SDS011;6702;47.068;15.458;2023-04-28T05:32:05;7.37;;;6.50;;
13267;SDS011;6702;47.068;15.458;2023-04-28T05:35:12;6.03;;;5.50;;
13267;SDS011;6702;47.068;15.458;2023-04-28T05:38:16;7.67;;;6.90;;
13267;SDS011;6702;47.068;15.458;2023-04-28T05:41:25;8.80;;;6.50;;
13267;SDS011;6702;47.068;15.458;2023-04-28T05:44:31;7.90;;;6.30;;
13267;SDS011;6702;47.068;15.458;2023-04-28T05:47:42;11.37;;;7.60;;
13267;SDS011;6702;47.068;15.458;2023-04-28T05:50:47;8.67;;;6.00;;
13267;SDS011;6702;47.068;15.458;2023-04-28T05:53:52;7.60;;;5.77;;
13267;SDS011;6702;47.068;15.458;2023-04-28T05:56:56;5.67;;;5.17;;
13267;SDS011;6702;47.068;15.458;2023-04-28T06:00:03;6.80;;;6.20;;
13267;SDS011;6702;47.068;15.458;2023-04-28T06:03:10;6.13;;;5.63;;
13267;SDS011;6702;47.068;15.458;2023-04-28T06:06:18;5.47;;;4.90;;
13267;SDS011;6702;47.068;15.458;2023-04-28T06:09:25;6.03;;;5.50;;
13267;SDS011;6702;47.068;15.458;2023-04-28T06:12:31;9.93;;;6.23;;
13267;SDS011;6702;47.068;15.458;2023-04-28T06:15:44;7.30;;;6.57;;
13267;SDS011;6702;47.068;15.458;2023-04-28T06:18:49;9.20;;;6.83;;
13267;SDS011;6702;47.068;15.458;2023-04-28T06:21:57;7.67;;;6.00;;
13267;SDS011;6702;47.068;15.458;2023-04-28T06:25:04;8.50;;;5.63;;
13267;SDS011;6702;47.068;15.458;2023-04-28T06:28:12;8.63;;;5.73;;
13267;SDS011;6702;47.068;15.458;2023-04-28T06:31:19;5.70;;;5.20;;
13267;SDS011;6702;47.068;15.458;2023-04-28T06:34:26;6.83;;;5.20;;
13267;SDS011;6702;47.068;15.458;2023-04-28T06:37:37;10.10;;;5.27;;
13267;SDS011;6702;47.068;15.458;2023-04-28T06:40:43;7.30;;;6.53;;
13267;SDS011;6702;47.068;15.458;2023-04-28T06:43:48;8.13;;;5.97;;
13267;SDS011;6702;47.068;15.458;2023-04-28T06:46:55;6.53;;;5.93;;
13267;SDS011;6702;47.068;15.458;2023-04-28T06:49:59;6.83;;;5.63;;
13267;SDS011;6702;47.068;15.458;2023-04-28T06:53:09;9.57;;;6.63;;
13267;SDS011;6702;47.068;15.458;2023-04-28T06:56:14;5.90;;;5.30;;
13267;SDS011;6702;47.068;15.458;2023-04-28T06:59:23;6.40;;;5.40;;
13267;SDS011;6702;47.068;15.458;2023-04-28T07:02:28;6.93;;;5.77;;
13267;SDS011;6702;47.068;15.458;2023-04-28T07:05:34;9.27;;;6.00;;
13267;SDS011;6702;47.068;15.458;2023-04-28T07:08:52;5.97;;;5.43;;
13267;SDS011;6702;47.068;15.458;2023-04-28T07:11:58;8.13;;;6.27;;
13267;SDS011;6702;47.068;15.458;2023-04-28T07:15:05;5.80;;;5.33;;
13267;SDS011;6702;47.068;15.458;2023-04-28T07:18:12;10.20;;;5.60;;
13267;SDS011;6702;47.068;15.458;2023-04-28T07:21:17;6.53;;;5.77;;
13267;SDS011;6702;47.068;15.458;2023-04-28T07:24:30;6.00;;;5.40;;
13267;SDS011;6702;47.068;15.458;2023-04-28T07:27:35;7.90;;;6.03;;
13267;SDS011;6702;47.068;15.458;2023-04-28T07:30:40;7.13;;;5.60;;
13267;SDS011;6702;47.068;15.458;2023-04-28T07:33:49;6.20;;;5.60;;
13267;SDS011;6702;47.068;15.458;2023-04-28T07:36:59;7.30;;;5.90;;
13267;SDS011;6702;47.068;15.458;2023-04-28T07:40:09;6.47;;;5.77;;
13267;SDS011;6702;47.068;15.458;2023-04-28T07:43:14;7.07;;;6.37;;
13267;SDS011;6702;47.068;15.458;2023-04-28T07:46:21;6.90;;;6.40;;
13267;SDS011;6702;47.068;15.458;2023-04-28T07:49:35;5.77;;;5.00;;
13267;SDS011;6702;47.068;15.458;2023-04-28T07:52:42;4.87;;;4.53;;
13267;SDS011;6702;47.068;15.458;2023-04-28T07:55:53;8.60;;;5.80;;
13267;SDS011;6702;47.068;15.458;2023-04-28T07:58:57;6.07;;;5.63;;
13267;SDS011;6702;47.068;15.458;2023-04-28T08:02:03;6.60;;;6.00;;
13267;SDS011;6702;47.068;15.458;2023-04-28T08:05:16;6.83;;;6.13;;
13267;SDS011;6702;47.068;15.458;2023-04-28T08:08:26;7.33;;;6.63;;
13267;SDS011;6702;47.068;15.458;2023-04-28T08:11:33;8.73;;;6.30;;
13267;SDS011;6702;47.068;15.458;2023-04-28T08:14:40;7.80;;;6.60;;
13267;SDS011;6702;47.068;15.458;2023-04-28T08:17:49;7.90;;;5.40;;
13267;SDS011;6702;47.068;15.458;2023-04-28T08:20:57;11.80;;;6.40;;
13267;SDS011;6702;47.068;15.458;2023-04-28T08:24:00;6.93;;;5.90;;
13267;SDS011;6702;47.068;15.458;2023-04-28T08:27:07;12.93;;;7.10;;
13267;SDS011;6702;47.068;15.458;2023-04-28T08:30:13;6.73;;;6.13;;
13267;SDS011;6702;47.068;15.458;2023-04-28T08:33:25;10.27;;;6.40;;
13267;SDS011;6702;47.068;15.458;2023-04-28T08:36:30;7.47;;;6.17;;
13267;SDS011;6702;47.068;15.458;2023-04-28T08:39:37;9.27;;;6.40;;
13267;SDS011;6702;47.068;15.458;2023-04-28T08:42:57;11.13;;;6.80;;
13267;SDS011;6702;47.068;15.458;2023-04-28T08:46:06;10.73;;;6.13;;
13267;SDS011;6702;47.068;15.458;2023-04-28T08:49:13;7.50;;;6.80;;
13267;SDS011;6702;47.068;15.458;2023-04-28T08:52:22;8.70;;;5.40;;
13267;SDS011;6702;47.068;15.458;2023-04-28T08:55:27;6.53;;;5.90;;
13267;SDS011;6702;47.068;15.458;2023-04-28T08:58:36;8.53;;;6.00;;
13267;SDS011;6702;47.068;15.458;2023-04-28T09:01:46;9.90;;;7.17;;
13267;SDS011;6702;47.068;15.458;2023-04-28T09:04:55;12.90;;;6.90;;
13267;SDS011;6702;47.068;15.458;2023-04-28T09:08:00;8.17;;;7.43;;
13267;SDS011;6702;47.068;15.458;2023-04-28T09:11:21;6.87;;;6.20;;
13267;SDS011;6702;47.068;15.458;2023-04-28T09:14:28;7.10;;;6.40;;
13267;SDS011;6702;47.068;15.458;2023-04-28T09:17:46;10.10;;;6.47;;
13267;SDS011;6702;47.068;15.458;2023-04-28T09:21:01;7.63;;;5.93;;
13267;SDS011;6702;47.068;15.458;2023-04-28T09:24:07;6.40;;;5.80;;
13267;SDS011;6702;47.068;15.458;2023-04-28T09:27:12;9.20;;;5.83;;
13267;SDS011;6702;47.068;15.458;2023-04-28T09:30:29;8.33;;;5.60;;
13267;SDS011;6702;47.068;15.458;2023-04-28T09:33:55;6.13;;;5.60;;
13267;SDS011;6702;47.068;15.458;2023-04-28T09:37:03;7.40;;;5.53;;
13267;SDS011;6702;47.068;15.458;2023-04-28T09:40:19;10.00;;;6.73;;
13267;SDS011;6702;47.068;15.458;2023-04-28T09:43:29;8.03;;;5.60;;
13267;SDS011;6702;47.068;15.458;2023-04-28T09:46:41;7.93;;;5.90;;
13267;SDS011;6702;47.068;15.458;2023-04-28T09:49:56;8.93;;;5.20;;
13267;SDS011;6702;47.068;15.458;2023-04-28T09:53:05;8.20;;;5.10;;
13267;SDS011;6702;47.068;15.458;2023-04-28T09:56:13;10.10;;;5.57;;
13267;SDS011;6702;47.068;15.458;2023-04-28T09:59:23;4.73;;;4.30;;
13267;SDS011;6702;47.068;15.458;2023-04-28T10:02:39;8.03;;;5.80;;
13267;SDS011;6702;47.068;15.458;2023-04-28T10:05:47;7.37;;;5.70;;
13267;SDS011;6702;47.068;15.458;2023-04-28T10:08:54;5.77;;;5.27;;
13267;SDS011;6702;47.068;15.458;2023-04-28T10:12:00;7.37;;;5.33;;
13267;SDS011;6702;47.068;15.458;2023-04-28T10:15:07;8.30;;;6.20;;
13267;SDS011;6702;47.068;15.458;2023-04-28T10:18:17;8.00;;;5.77;;
13267;SDS011;6702;47.068;15.458;2023-04-28T10:21:24;7.13;;;6.43;;
13267;SDS011;6702;47.068;15.458;2023-04-28T10:24:31;7.77;;;6.97;;
13267;SDS011;6702;47.068;15.458;2023-04-28T10:27:38;7.47;;;6.27;;
13267;SDS011;6702;47.068;15.458;2023-04-28T10:30:59;7.60;;;6.90;;
13267;SDS011;6702;47.068;15.458;2023-04-28T10:34:21;9.13;;;7.43;;
13267;SDS011;6702;47.068;15.458;2023-04-28T10:44:43;7.43;;;6.57;;
13267;SDS011;6702;47.068;15.458;2023-04-28T10:48:06;10.77;;;8.73;;
13267;SDS011;6702;47.068;15.458;2023-04-28T10:51:25;8.60;;;7.53;;
13267;SDS011;6702;47.068;15.458;2023-04-28T10:54:39;8.47;;;7.07;;
13267;SDS011;6702;47.068;15.458;2023-04-28T10:57:45;8.17;;;7.37;;
13267;SDS011;6702;47.068;15.458;2023-04-28T11:00:49;8.20;;;7.40;;
13267;SDS011;6702;47.068;15.458;2023-04-28T11:03:57;8.70;;;7.73;;
13267;SDS011;6702;47.068;15.458;2023-04-28T11:07:12;8.27;;;7.47;;
13267;SDS011;6702;47.068;15.458;2023-04-28T11:10:26;8.80;;;7.90;;
13267;SDS011;6702;47.068;15.458;2023-04-28T11:17:42;8.60;;;7.90;;
13267;SDS011;6702;47.068;15.458;2023-04-28T11:20:53;8.23;;;7.30;;
13267;SDS011;6702;47.068;15.458;2023-04-28T11:24:08;9.23;;;8.43;;
13267;SDS011;6702;47.068;15.458;2023-04-28T11:27:21;8.37;;;7.43;;
13267;SDS011;6702;47.068;15.458;2023-04-28T11:30:27;13.07;;;8.90;;
13267;SDS011;6702;47.068;15.458;2023-04-28T11:33:33;9.07;;;8.23;;
13267;SDS011;6702;47.068;15.458;2023-04-28T11:36:41;11.53;;;10.27;;
13267;SDS011;6702;47.068;15.458;2023-04-28T11:39:47;10.67;;;9.67;;
13267;SDS011;6702;47.068;15.458;2023-04-28T11:42:52;9.60;;;8.53;;
13267;SDS011;6702;47.068;15.458;2023-04-28T11:46:01;8.90;;;8.10;;
13267;SDS011;6702;47.068;15.458;2023-04-28T11:49:05;9.87;;;8.90;;
13267;SDS011;6702;47.068;15.458;2023-04-28T11:52:19;8.77;;;8.07;;
13267;SDS011;6702;47.068;15.458;2023-04-28T11:55:28;9.70;;;8.70;;
13267;SDS011;6702;47.068;15.458;2023-04-28T11:58:32;9.83;;;8.83;;
13267;SDS011;6702;47.068;15.458;2023-04-28T12:01:45;10.20;;;9.20;;
13267;SDS011;6702;47.068;15.458;2023-04-28T12:04:51;10.93;;;8.80;;
13267;SDS011;6702;47.068;15.458;2023-04-28T12:08:00;9.37;;;8.47;;
13267;SDS011;6702;47.068;15.458;2023-04-28T12:11:13;9.57;;;8.67;;
13267;SDS011;6702;47.068;15.458;2023-04-28T12:14:22;9.00;;;8.20;;
13267;SDS011;6702;47.068;15.458;2023-04-28T12:17:27;7.70;;;6.97;;
13267;SDS011;6702;47.068;15.458;2023-04-28T12:20:36;8.43;;;7.73;;
13267;SDS011;6702;47.068;15.458;2023-04-28T12:23:43;9.93;;;8.80;;
13267;SDS011;6702;47.068;15.458;2023-04-28T12:26:49;9.10;;;8.30;;
13267;SDS011;6702;47.068;15.458;2023-04-28T12:29:55;11.40;;;8.60;;
13267;SDS011;6702;47.068;15.458;2023-04-28T12:33:00;11.63;;;8.60;;
13267;SDS011;6702;47.068;15.458;2023-04-28T12:36:07;9.80;;;8.13;;
13267;SDS011;6702;47.068;15.458;2023-04-28T12:39:13;9.90;;;8.33;;
13267;SDS011;6702;47.068;15.458;2023-04-28T12:42:23;9.63;;;8.70;;
13267;SDS011;6702;47.068;15.458;2023-04-28T12:45:30;10.47;;;8.00;;
13267;SDS011;6702;47.068;15.458;2023-04-28T12:48:39;12.60;;;8.60;;
13267;SDS011;6702;47.068;15.458;2023-04-28T12:51:57;8.00;;;7.30;;
13267;SDS011;6702;47.068;15.458;2023-04-28T12:55:16;10.33;;;9.40;;
13267;SDS011;6702;47.068;15.458;2023-04-28T12:58:27;9.70;;;8.70;;
13267;SDS011;6702;47.068;15.458;2023-04-28T13:01:36;8.97;;;8.17;;
13267;SDS011;6702;47.068;15.458;2023-04-28T13:04:44;8.23;;;7.53;;
13267;SDS011;6702;47.068;15.458;2023-04-28T13:07:49;9.40;;;8.60;;
13267;SDS011;6702;47.068;15.458;2023-04-28T13:10:54;8.97;;;8.07;;
13267;SDS011;6702;47.068;15.458;2023-04-28T13:14:26;8.50;;;7.70;;
13267;SDS011;6702;47.068;15.458;2023-04-28T13:17:31;10.80;;;9.10;;
13267;SDS011;6702;47.068;15.458;2023-04-28T13:20:37;16.07;;;10.43;;
13267;SDS011;6702;47.068;15.458;2023-04-28T13:23:45;9.87;;;8.87;;
13267;SDS011;6702;47.068;15.458;2023-04-28T13:26:51;15.10;;;13.40;;
13267;SDS011;6702;47.068;15.458;2023-04-28T13:29:57;9.00;;;8.13;;
13267;SDS011;6702;47.068;15.458;2023-04-28T13:33:02;10.13;;;9.13;;
13267;SDS011;6702;47.068;15.458;2023-04-28T13:36:07;9.63;;;8.60;;
13267;SDS011;6702;47.068;15.458;2023-04-28T13:39:12;10.47;;;9.40;;
13267;SDS011;6702;47.068;15.458;2023-04-28T13:42:16;10.50;;;9.60;;
13267;SDS011;6702;47.068;15.458;2023-04-28T13:45:26;9.67;;;8.70;;
13267;SDS011;6702;47.068;15.458;2023-04-28T13:48:31;9.83;;;8.23;;
13267;SDS011;6702;47.068;15.458;2023-04-28T13:51:38;10.53;;;9.63;;
13267;SDS011;6702;47.068;15.458;2023-04-28T13:54:43;8.80;;;7.90;;
13267;SDS011;6702;47.068;15.458;2023-04-28T13:57:51;10.30;;;9.43;;
13267;SDS011;6702;47.068;15.458;2023-04-28T14:00:56;9.70;;;8.67;;
13267;SDS011;6702;47.068;15.458;2023-04-28T14:04:01;10.80;;;9.80;;
13267;SDS011;6702;47.068;15.458;2023-04-28T14:07:08;9.10;;;8.20;;
13267;SDS011;6702;47.068;15.458;2023-04-28T14:10:16;10.70;;;8.27;;
13267;SDS011;6702;47.068;15.458;2023-04-28T14:13:21;9.90;;;9.00;;
13267;SDS011;6702;47.068;15.458;2023-04-28T14:16:31;9.47;;;7.97;;
13267;SDS011;6702;47.068;15.458;2023-04-28T14:19:40;12.17;;;9.57;;
13267;SDS011;6702;47.068;15.458;2023-04-28T14:22:47;11.27;;;9.00;;
13267;SDS011;6702;47.068;15.458;2023-04-28T14:25:52;10.90;;;9.07;;
13267;SDS011;6702;47.068;15.458;2023-04-28T14:29:00;8.67;;;7.87;;
13267;SDS011;6702;47.068;15.458;2023-04-28T14:32:06;9.87;;;8.87;;
13267;SDS011;6702;47.068;15.458;2023-04-28T14:35:10;10.70;;;9.10;;
13267;SDS011;6702;47.068;15.458;2023-04-28T14:38:24;9.53;;;8.23;;
13267;SDS011;6702;47.068;15.458;2023-04-28T14:41:30;10.43;;;8.90;;
13267;SDS011;6702;47.068;15.458;2023-04-28T14:44:44;8.33;;;7.63;;
13267;SDS011;6702;47.068;15.458;2023-04-28T14:47:54;9.20;;;8.30;;
13267;SDS011;6702;47.068;15.458;2023-04-28T14:50:59;8.57;;;7.70;;
13267;SDS011;6702;47.068;15.458;2023-04-28T14:54:08;9.20;;;8.37;;
13267;SDS011;6702;47.068;15.458;2023-04-28T14:57:20;8.37;;;7.50;;
13267;SDS011;6702;47.068;15.458;2023-04-28T15:00:24;9.50;;;8.60;;
13267;SDS011;6702;47.068;15.458;2023-04-28T15:03:30;10.03;;;8.23;;
13267;SDS011;6702;47.068;15.458;2023-04-28T15:06:49;10.20;;;9.20;;
13267;SDS011;6702;47.068;15.458;2023-04-28T15:09:56;9.30;;;8.40;;
13267;SDS011;6702;47.068;15.458;2023-04-28T15:13:02;10.77;;;9.73;;
13267;SDS011;6702;47.068;15.458;2023-04-28T15:16:07;12.20;;;9.17;;
13267;SDS011;6702;47.068;15.458;2023-04-28T15:19:22;10.20;;;9.10;;
13267;SDS011;6702;47.068;15.458;2023-04-28T15:22:27;9.50;;;8.60;;
13267;SDS011;6702;47.068;15.458;2023-04-28T15:25:32;11.87;;;8.47;;
13267;SDS011;6702;47.068;15.458;2023-04-28T15:28:39;10.37;;;8.60;;
13267;SDS011;6702;47.068;15.458;2023-04-28T15:31:44;10.83;;;9.87;;
13267;SDS011;6702;47.068;15.458;2023-04-28T15:34:54;8.67;;;7.97;;
13267;SDS011;6702;47.068;15.458;2023-04-28T15:37:59;8.73;;;7.90;;
13267;SDS011;6702;47.068;15.458;2023-04-28T15:41:05;11.60;;;8.97;;
13267;SDS011;6702;47.068;15.458;2023-04-28T15:44:11;12.23;;;9.73;;
13267;SDS011;6702;47.068;15.458;2023-04-28T15:47:17;10.00;;;9.00;;
13267;SDS011;6702;47.068;15.458;2023-04-28T15:50:26;10.30;;;8.53;;
13267;SDS011;6702;47.068;15.458;2023-04-28T15:53:32;10.17;;;9.13;;
13267;SDS011;6702;47.068;15.458;2023-04-28T15:56:37;10.90;;;9.20;;
13267;SDS011;6702;47.068;15.458;2023-04-28T15:59:46;10.57;;;9.40;;
13267;SDS011;6702;47.068;15.458;2023-04-28T16:02:53;10.30;;;9.20;;
13267;SDS011;6702;47.068;15.458;2023-04-28T16:06:14;9.13;;;8.43;;
13267;SDS011;6702;47.068;15.458;2023-04-28T16:09:19;14.43;;;9.27;;
13267;SDS011;6702;47.068;15.458;2023-04-28T16:12:23;11.27;;;10.40;;
13267;SDS011;6702;47.068;15.458;2023-04-28T16:15:39;9.67;;;8.57;;
13267;SDS011;6702;47.068;15.458;2023-04-28T16:18:45;11.20;;;10.10;;
13267;SDS011;6702;47.068;15.458;2023-04-28T16:21:53;12.20;;;10.93;;
13267;SDS011;6702;47.068;15.458;2023-04-28T16:24:59;14.77;;;10.40;;
13267;SDS011;6702;47.068;15.458;2023-04-28T16:28:08;10.33;;;9.30;;
13267;SDS011;6702;47.068;15.458;2023-04-28T16:31:16;10.27;;;9.30;;
13267;SDS011;6702;47.068;15.458;2023-04-28T16:34:23;10.43;;;9.43;;
13267;SDS011;6702;47.068;15.458;2023-04-28T16:37:32;10.60;;;9.53;;
13267;SDS011;6702;47.068;15.458;2023-04-28T16:40:42;13.03;;;10.13;;
13267;SDS011;6702;47.068;15.458;2023-04-28T16:43:47;12.37;;;11.07;;
13267;SDS011;6702;47.068;15.458;2023-04-28T16:47:01;11.73;;;10.30;;
13267;SDS011;6702;47.068;15.458;2023-04-28T16:50:07;12.33;;;11.13;;
13267;SDS011;6702;47.068;15.458;2023-04-28T16:53:21;12.87;;;11.70;;
13267;SDS011;6702;47.068;15.458;2023-04-28T16:56:28;13.20;;;11.90;;
13267;SDS011;6702;47.068;15.458;2023-04-28T16:59:43;13.40;;;10.60;;
13267;SDS011;6702;47.068;15.458;2023-04-28T17:02:47;12.77;;;11.37;;
13267;SDS011;6702;47.068;15.458;2023-04-28T17:05:52;12.93;;;11.67;;
13267;SDS011;6702;47.068;15.458;2023-04-28T17:09:06;12.23;;;11.00;;
13267;SDS011;6702;47.068;15.458;2023-04-28T17:12:11;13.73;;;12.33;;
13267;SDS011;6702;47.068;15.458;2023-04-28T17:15:18;11.33;;;10.23;;
13267;SDS011;6702;47.068;15.458;2023-04-28T17:18:29;12.80;;;11.60;;
13267;SDS011;6702;47.068;15.458;2023-04-28T17:21:36;12.70;;;11.30;;
13267;SDS011;6702;47.068;15.458;2023-04-28T17:24:49;11.00;;;9.90;;
13267;SDS011;6702;47.068;15.458;2023-04-28T17:27:55;12.37;;;11.10;;
13267;SDS011;6702;47.068;15.458;2023-04-28T17:31:01;12.87;;;11.60;;
13267;SDS011;6702;47.068;15.458;2023-04-28T17:34:09;12.77;;;11.57;;
13267;SDS011;6702;47.068;15.458;2023-04-28T17:37:14;11.43;;;9.77;;
13267;SDS011;6702;47.068;15.458;2023-04-28T17:40:35;12.03;;;10.97;;
13267;SDS011;6702;47.068;15.458;2023-04-28T17:43:44;16.80;;;11.77;;
13267;SDS011;6702;47.068;15.458;2023-04-28T17:46:50;12.20;;;11.07;;
13267;SDS011;6702;47.068;15.458;2023-04-28T17:49:59;13.43;;;12.23;;
13267;SDS011;6702;47.068;15.458;2023-04-28T17:53:06;14.47;;;11.43;;
13267;SDS011;6702;47.068;15.458;2023-04-28T17:56:17;13.43;;;12.03;;
13267;SDS011;6702;47.068;15.458;2023-04-28T17:59:24;13.40;;;12.10;;
13267;SDS011;6702;47.068;15.458;2023-04-28T18:02:29;11.57;;;10.47;;
13267;SDS011;6702;47.068;15.458;2023-04-28T18:05:34;12.47;;;11.27;;
13267;SDS011;6702;47.068;15.458;2023-04-28T18:08:43;13.90;;;12.50;;
13267;SDS011;6702;47.068;15.458;2023-04-28T18:11:58;13.27;;;11.80;;
13267;SDS011;6702;47.068;15.458;2023-04-28T18:15:09;14.10;;;12.67;;
13267;SDS011;6702;47.068;15.458;2023-04-28T18:18:14;14.13;;;12.73;;
13267;SDS011;6702;47.068;15.458;2023-04-28T18:21:20;14.00;;;12.57;;
13267;SDS011;6702;47.068;15.458;2023-04-28T18:24:30;18.83;;;12.87;;
13267;SDS011;6702;47.068;15.458;2023-04-28T18:27:38;15.03;;;13.60;;
13267;SDS011;6702;47.068;15.458;2023-04-28T18:30:44;15.37;;;13.87;;
13267;SDS011;6702;47.068;15.458;2023-04-28T18:33:48;14.33;;;12.93;;
13267;SDS011;6702;47.068;15.458;2023-04-28T18:36:58;16.73;;;13.60;;
13267;SDS011;6702;47.068;15.458;2023-04-28T18:40:14;14.77;;;13.60;;
13267;SDS011;6702;47.068;15.458;2023-04-28T18:43:26;18.13;;;13.33;;
13267;SDS011;6702;47.068;15.458;2023-04-28T18:46:31;19.60;;;15.50;;
13267;SDS011;6702;47.068;15.458;2023-04-28T18:49:40;17.20;;;14.70;;
13267;SDS011;6702;47.068;15.458;2023-04-28T18:52:45;14.60;;;13.27;;
13267;SDS011;6702;47.068;15.458;2023-04-28T18:55:51;13.77;;;12.53;;